createdAt,value
2022-11-18T00:01:15.497Z,985.3
2022-11-18T00:02:31.786Z,985.3
2022-11-18T00:03:48.072Z,985.3
2022-11-18T00:05:04.369Z,985.3
2022-11-18T00:06:20.667Z,985.3
2022-11-18T00:07:36.951Z,985.3
2022-11-18T00:08:52.278Z,985.3
2022-11-18T00:10:08.553Z,985.4
2022-11-18T00:11:24.843Z,985.3
2022-11-18T00:12:41.147Z,985.4
2022-11-18T00:13:57.437Z,985.4
2022-11-18T00:15:13.736Z,985.4
2022-11-18T00:16:30.016Z,985.4
2022-11-18T00:17:46.327Z,985.4
2022-11-18T00:19:02.620Z,985.4
2022-11-18T00:20:18.907Z,985.4
2022-11-18T00:21:35.207Z,985.3
2022-11-18T00:22:51.491Z,985.3
2022-11-18T00:24:07.785Z,985.4
2022-11-18T00:25:23.104Z,985.4
2022-11-18T00:26:39.394Z,985.4
2022-11-18T00:27:55.673Z,985.4
2022-11-18T00:29:11.971Z,985.4
2022-11-18T00:30:28.272Z,985.4
2022-11-18T00:31:44.552Z,985.4
2022-11-18T00:33:00.853Z,985.4
2022-11-18T00:34:17.141Z,985.4
2022-11-18T00:35:33.447Z,985.4
2022-11-18T00:36:49.730Z,985.5
2022-11-18T00:38:06.020Z,985.5
2022-11-18T00:39:22.318Z,985.4
2022-11-18T00:40:38.612Z,985.4
2022-11-18T00:41:53.927Z,985.4
2022-11-18T00:43:10.212Z,985.4
2022-11-18T00:44:26.504Z,985.4
2022-11-18T00:45:42.796Z,985.4
2022-11-18T00:46:59.090Z,985.4
2022-11-18T00:48:15.389Z,985.4
2022-11-18T00:49:30.711Z,985.4
2022-11-18T00:50:46.993Z,985.4
2022-11-18T00:52:03.279Z,985.4
2022-11-18T00:53:19.589Z,985.4
2022-11-18T00:54:35.875Z,985.4
2022-11-18T00:55:52.166Z,985.4
2022-11-18T00:57:08.451Z,985.4
2022-11-18T00:58:24.761Z,985.4
2022-11-18T00:59:41.055Z,985.4
2022-11-18T01:00:57.350Z,985.5
2022-11-18T01:02:13.629Z,985.5
2022-11-18T01:03:29.927Z,985.5
2022-11-18T01:04:46.210Z,985.5
2022-11-18T01:06:01.535Z,985.6
2022-11-18T01:07:17.822Z,985.6
2022-11-18T01:08:34.111Z,985.5
2022-11-18T01:09:50.413Z,985.6
2022-11-18T01:11:06.696Z,985.6
2022-11-18T01:12:22.997Z,985.6
2022-11-18T01:13:39.288Z,985.6
2022-11-18T01:14:55.582Z,985.5
2022-11-18T01:16:11.875Z,985.5
2022-11-18T01:17:28.170Z,985.6
2022-11-18T01:18:44.465Z,985.5
2022-11-18T01:20:00.753Z,985.5
2022-11-18T01:21:17.042Z,985.5
2022-11-18T01:22:32.346Z,985.5
2022-11-18T01:23:48.643Z,985.5
2022-11-18T01:25:04.935Z,985.5
2022-11-18T01:26:21.237Z,985.5
2022-11-18T01:27:37.536Z,985.4
2022-11-18T01:28:53.817Z,985.4
2022-11-18T01:30:10.106Z,985.5
2022-11-18T01:31:26.398Z,985.4
2022-11-18T01:32:42.709Z,985.4
2022-11-18T01:33:58.987Z,985.5
2022-11-18T01:35:15.280Z,985.5
2022-11-18T01:36:31.585Z,985.5
2022-11-18T01:37:47.880Z,985.5
2022-11-18T01:39:03.177Z,985.5
2022-11-18T01:40:19.478Z,985.5
2022-11-18T01:41:35.759Z,985.5
2022-11-18T01:42:52.059Z,985.5
2022-11-18T01:44:08.354Z,985.4
2022-11-18T01:45:24.649Z,985.5
2022-11-18T01:46:40.939Z,985.4
2022-11-18T01:47:57.229Z,985.4
2022-11-18T01:49:13.531Z,985.4
2022-11-18T01:50:29.816Z,985.4
2022-11-18T01:51:46.000Z,985.3
2022-11-18T01:53:02.395Z,985.3
2022-11-18T01:54:18.696Z,985.3
2022-11-18T01:55:34.005Z,985.4
2022-11-18T01:56:50.294Z,985.4
2022-11-18T01:58:06.587Z,985.4
2022-11-18T01:59:22.889Z,985.4
2022-11-18T02:00:39.185Z,985.4
2022-11-18T02:01:55.480Z,985.4
2022-11-18T02:03:11.758Z,985.4
2022-11-18T02:04:28.053Z,985.4
2022-11-18T02:05:44.000Z,985.5
2022-11-18T02:07:00.644Z,985.5
2022-11-18T02:09:33.201Z,985.4
2022-11-18T02:10:49.504Z,985.4
2022-11-18T02:12:04.810Z,985.4
2022-11-18T02:13:21.102Z,985.5
2022-11-18T02:14:37.399Z,985.4
2022-11-18T02:15:53.676Z,985.4
2022-11-18T02:17:09.978Z,985.4
2022-11-18T02:18:26.262Z,985.4
2022-11-18T02:19:42.567Z,985.4
2022-11-18T02:20:58.865Z,985.5
2022-11-18T02:22:15.142Z,985.5
2022-11-18T02:23:31.446Z,985.5
2022-11-18T02:24:47.739Z,985.5
2022-11-18T02:26:04.024Z,985.5
2022-11-18T02:27:20.319Z,985.5
2022-11-18T02:28:35.621Z,985.5
2022-11-18T02:29:51.914Z,985.5
2022-11-18T02:31:08.218Z,985.5
2022-11-18T02:32:24.509Z,985.5
2022-11-18T02:33:40.806Z,985.4
2022-11-18T02:34:57.088Z,985.5
2022-11-18T02:36:13.389Z,985.5
2022-11-18T02:37:29.677Z,985.5
2022-11-18T02:38:45.984Z,985.5
2022-11-18T02:40:02.269Z,985.5
2022-11-18T02:41:18.565Z,985.5
2022-11-18T02:42:34.859Z,985.5
2022-11-18T02:43:51.157Z,985.6
2022-11-18T02:45:06.459Z,985.6
2022-11-18T02:46:22.755Z,985.6
2022-11-18T02:47:39.042Z,985.6
2022-11-18T02:48:55.344Z,985.6
2022-11-18T02:50:11.636Z,985.6
2022-11-18T02:51:27.930Z,985.6
2022-11-18T02:52:44.211Z,985.6
2022-11-18T02:54:00.510Z,985.6
2022-11-18T02:55:16.796Z,985.6
2022-11-18T02:56:33.093Z,985.6
2022-11-18T02:57:49.399Z,985.6
2022-11-18T02:59:05.678Z,985.6
2022-11-18T03:00:21.978Z,985.6
2022-11-18T03:01:37.278Z,985.7
2022-11-18T03:02:53.572Z,985.7
2022-11-18T03:04:09.863Z,985.6
2022-11-18T03:05:26.164Z,985.6
2022-11-18T03:06:42.459Z,985.6
2022-11-18T03:07:58.000Z,985.6
2022-11-18T03:09:15.038Z,985.7
2022-11-18T03:10:31.338Z,985.6
2022-11-18T03:11:47.634Z,985.6
2022-11-18T03:13:03.920Z,985.6
2022-11-18T03:14:20.224Z,985.6
2022-11-18T03:15:36.505Z,985.6
2022-11-18T03:16:52.813Z,985.7
2022-11-18T03:18:08.113Z,985.7
2022-11-18T03:19:24.408Z,985.7
2022-11-18T03:20:40.695Z,985.7
2022-11-18T03:21:56.993Z,985.7
2022-11-18T03:23:13.294Z,985.7
2022-11-18T03:24:29.575Z,985.8
2022-11-18T03:25:45.870Z,985.8
2022-11-18T03:27:02.165Z,985.8
2022-11-18T03:28:18.452Z,985.8
2022-11-18T03:29:34.754Z,985.8
2022-11-18T03:30:51.039Z,985.9
2022-11-18T03:32:07.339Z,985.9
2022-11-18T03:33:23.632Z,985.9
2022-11-18T03:34:38.943Z,986
2022-11-18T03:35:55.233Z,986
2022-11-18T03:37:11.534Z,986
2022-11-18T03:38:27.814Z,986.1
2022-11-18T03:39:44.119Z,986.1
2022-11-18T03:41:00.408Z,986.1
2022-11-18T03:42:16.698Z,986.1
2022-11-18T03:43:32.990Z,986.1
2022-11-18T03:44:49.290Z,986.2
2022-11-18T03:46:05.569Z,986.2
2022-11-18T03:47:21.864Z,986.2
2022-11-18T03:48:38.155Z,986.2
2022-11-18T03:49:54.450Z,986.2
2022-11-18T03:51:09.763Z,986.3
2022-11-18T03:52:26.050Z,986.3
2022-11-18T03:53:42.351Z,986.3
2022-11-18T03:54:58.654Z,986.3
2022-11-18T03:56:14.933Z,986.3
2022-11-18T03:57:31.225Z,986.3
2022-11-18T03:58:47.532Z,986.3
2022-11-18T04:00:03.829Z,986.4
2022-11-18T04:01:20.111Z,986.4
2022-11-18T04:02:36.401Z,986.4
2022-11-18T04:03:52.704Z,986.3
2022-11-18T04:05:08.994Z,986.3
2022-11-18T04:06:25.277Z,986.4
2022-11-18T04:07:40.597Z,986.3
2022-11-18T04:08:56.892Z,986.3
2022-11-18T04:10:13.182Z,986.3
2022-11-18T04:11:29.476Z,986.4
2022-11-18T04:12:45.757Z,986.4
2022-11-18T04:14:02.064Z,986.4
2022-11-18T04:15:18.353Z,986.4
2022-11-18T04:16:34.654Z,986.4
2022-11-18T04:19:07.242Z,986.4
2022-11-18T04:20:23.523Z,986.4
2022-11-18T04:21:39.819Z,986.4
2022-11-18T04:22:56.113Z,986.4
2022-11-18T04:24:11.424Z,986.4
2022-11-18T04:25:27.724Z,986.4
2022-11-18T04:26:44.002Z,986.4
2022-11-18T04:28:00.298Z,986.4
2022-11-18T04:29:16.593Z,986.4
2022-11-18T04:30:32.892Z,986.4
2022-11-18T04:31:49.172Z,986.4
2022-11-18T04:33:05.474Z,986.4
2022-11-18T04:34:21.760Z,986.4
2022-11-18T04:35:38.051Z,986.5
2022-11-18T04:36:54.357Z,986.4
2022-11-18T04:38:10.651Z,986.5
2022-11-18T04:39:26.933Z,986.5
2022-11-18T04:40:42.247Z,986.4
2022-11-18T04:41:58.548Z,986.5
2022-11-18T04:43:14.843Z,986.4
2022-11-18T04:44:31.131Z,986.5
2022-11-18T04:45:47.422Z,986.5
2022-11-18T04:47:03.712Z,986.4
2022-11-18T04:48:20.006Z,986.4
2022-11-18T04:49:36.304Z,986.4
2022-11-18T04:50:52.589Z,986.5
2022-11-18T04:52:08.898Z,986.4
2022-11-18T04:53:25.185Z,986.4
2022-11-18T04:54:41.482Z,986.5
2022-11-18T04:55:57.769Z,986.5
2022-11-18T04:57:13.088Z,986.5
2022-11-18T04:58:29.366Z,986.5
2022-11-18T04:59:45.674Z,986.5
2022-11-18T05:01:01.963Z,986.6
2022-11-18T05:02:18.242Z,986.7
2022-11-18T05:03:34.552Z,986.7
2022-11-18T05:04:49.860Z,986.7
2022-11-18T05:06:06.146Z,986.6
2022-11-18T05:07:22.437Z,986.7
2022-11-18T05:08:38.731Z,986.7
2022-11-18T05:09:55.040Z,986.7
2022-11-18T05:11:11.332Z,986.7
2022-11-18T05:12:27.624Z,986.7
2022-11-18T05:13:43.920Z,986.7
2022-11-18T05:15:00.195Z,986.7
2022-11-18T05:16:16.488Z,986.7
2022-11-18T05:17:32.782Z,986.7
2022-11-18T05:18:49.078Z,986.8
2022-11-18T05:20:05.375Z,986.7
2022-11-18T05:21:20.676Z,986.8
2022-11-18T05:22:36.976Z,986.8
2022-11-18T05:23:53.272Z,986.8
2022-11-18T05:25:09.572Z,986.8
2022-11-18T05:26:25.852Z,986.8
2022-11-18T05:27:42.152Z,986.8
2022-11-18T05:28:58.452Z,986.8
2022-11-18T05:30:14.731Z,986.8
2022-11-18T05:31:31.033Z,986.8
2022-11-18T05:32:47.322Z,986.8
2022-11-18T05:34:03.629Z,986.8
2022-11-18T05:35:19.916Z,986.9
2022-11-18T05:36:36.214Z,986.9
2022-11-18T05:37:51.520Z,986.9
2022-11-18T05:39:07.801Z,986.9
2022-11-18T05:40:24.103Z,986.9
2022-11-18T05:41:40.398Z,986.9
2022-11-18T05:42:56.681Z,987
2022-11-18T05:44:12.986Z,987
2022-11-18T05:45:29.266Z,987.1
2022-11-18T05:46:45.559Z,987
2022-11-18T05:48:01.866Z,987
2022-11-18T05:49:18.160Z,987.1
2022-11-18T05:50:34.441Z,987.1
2022-11-18T05:51:50.735Z,987.1
2022-11-18T05:53:07.043Z,987.1
2022-11-18T05:54:22.338Z,987.1
2022-11-18T05:55:38.641Z,987.1
2022-11-18T05:56:54.923Z,987.2
2022-11-18T05:58:11.219Z,987.2
2022-11-18T05:59:27.515Z,987.2
2022-11-18T06:00:43.812Z,987.3
2022-11-18T06:02:00.100Z,987.3
2022-11-18T06:03:16.406Z,987.3
2022-11-18T06:04:32.697Z,987.3
2022-11-18T06:05:48.990Z,987.4
2022-11-18T06:07:05.221Z,987.4
2022-11-18T06:08:21.472Z,987.4
2022-11-18T06:09:37.717Z,987.4
2022-11-18T06:10:52.975Z,987.4
2022-11-18T06:12:09.204Z,987.4
2022-11-18T06:13:25.450Z,987.4
2022-11-18T06:14:41.693Z,987.4
2022-11-18T06:15:57.937Z,987.4
2022-11-18T06:17:14.172Z,987.4
2022-11-18T06:18:30.422Z,987.4
2022-11-18T06:19:46.653Z,987.5
2022-11-18T06:21:02.893Z,987.4
2022-11-18T06:22:19.143Z,987.5
2022-11-18T06:23:35.382Z,987.5
2022-11-18T06:24:51.609Z,987.5
2022-11-18T06:26:07.846Z,987.5
2022-11-18T06:27:23.109Z,987.5
2022-11-18T06:28:39.346Z,987.5
2022-11-18T06:29:55.594Z,987.5
2022-11-18T06:31:11.820Z,987.5
2022-11-18T06:32:28.077Z,987.6
2022-11-18T06:33:44.308Z,987.6
2022-11-18T06:35:00.549Z,987.6
2022-11-18T06:36:16.778Z,987.6
2022-11-18T06:37:33.014Z,987.6
2022-11-18T06:38:49.270Z,987.6
2022-11-18T06:40:05.512Z,987.6
2022-11-18T06:41:21.746Z,987.6
2022-11-18T06:42:37.974Z,987.6
2022-11-18T06:43:53.242Z,987.6
2022-11-18T06:45:09.474Z,987.6
2022-11-18T06:46:25.723Z,987.6
2022-11-18T06:47:41.967Z,987.8
2022-11-18T06:48:58.201Z,987.8
2022-11-18T06:50:14.431Z,987.8
2022-11-18T06:51:30.679Z,987.8
2022-11-18T06:52:46.914Z,987.9
2022-11-18T06:54:03.151Z,987.9
2022-11-18T06:55:19.391Z,987.9
2022-11-18T06:56:35.629Z,987.9
2022-11-18T06:57:51.881Z,987.9
2022-11-18T06:59:08.120Z,987.9
2022-11-18T07:00:23.365Z,987.9
2022-11-18T07:01:39.602Z,987.9
2022-11-18T07:02:55.855Z,988
2022-11-18T07:04:12.082Z,988
2022-11-18T07:05:28.328Z,988
2022-11-18T07:06:44.560Z,988
2022-11-18T07:08:00.805Z,988
2022-11-18T07:09:17.036Z,988
2022-11-18T07:10:33.275Z,988.1
2022-11-18T07:11:49.511Z,988
2022-11-18T07:13:05.761Z,988.1
2022-11-18T07:14:22.006Z,988.1
2022-11-18T07:15:38.236Z,988.1
2022-11-18T07:16:53.502Z,988.1
2022-11-18T07:18:09.725Z,988
2022-11-18T07:19:25.978Z,988.1
2022-11-18T07:20:42.201Z,988
2022-11-18T07:21:58.451Z,988.1
2022-11-18T07:23:14.683Z,988.1
2022-11-18T07:24:30.926Z,988.1
2022-11-18T07:25:47.179Z,988.2
2022-11-18T07:27:03.407Z,988.1
2022-11-18T07:28:19.644Z,988.1
2022-11-18T07:29:35.878Z,988.1
2022-11-18T07:30:52.135Z,988.2
2022-11-18T07:32:08.372Z,988.2
2022-11-18T07:33:23.620Z,988.2
2022-11-18T07:34:39.851Z,988.2
2022-11-18T07:35:56.106Z,988.3
2022-11-18T07:37:12.345Z,988.3
2022-11-18T07:38:28.588Z,988.3
2022-11-18T07:39:44.818Z,988.3
2022-11-18T07:41:01.049Z,988.3
2022-11-18T07:42:17.295Z,988.3
2022-11-18T07:43:33.532Z,988.3
2022-11-18T07:46:06.013Z,988.3
2022-11-18T07:47:22.253Z,988.3
2022-11-18T07:48:38.485Z,988.4
2022-11-18T07:49:53.752Z,988.3
2022-11-18T07:51:09.977Z,988.4
2022-11-18T07:52:26.233Z,988.4
2022-11-18T07:53:42.473Z,988.4
2022-11-18T07:54:58.700Z,988.4
2022-11-18T07:56:14.938Z,988.5
2022-11-18T07:57:31.193Z,988.4
2022-11-18T07:58:47.431Z,988.5
2022-11-18T08:00:03.663Z,988.5
2022-11-18T08:01:19.909Z,988.5
2022-11-18T08:02:36.133Z,988.5
2022-11-18T08:03:52.381Z,988.5
2022-11-18T08:05:08.629Z,988.6
2022-11-18T08:06:23.872Z,988.6
2022-11-18T08:07:40.123Z,988.6
2022-11-18T08:08:56.360Z,988.6
2022-11-18T08:10:12.597Z,988.6
2022-11-18T08:11:28.832Z,988.7
2022-11-18T08:12:45.060Z,988.7
2022-11-18T08:14:01.313Z,988.7
2022-11-18T08:15:17.550Z,988.8
2022-11-18T08:16:33.792Z,988.8
2022-11-18T08:17:50.021Z,988.7
2022-11-18T08:19:06.272Z,988.8
2022-11-18T08:20:22.507Z,988.7
2022-11-18T08:21:38.754Z,988.8
2022-11-18T08:22:53.991Z,988.8
2022-11-18T08:24:10.250Z,988.9
2022-11-18T08:25:26.482Z,988.8
2022-11-18T08:26:42.726Z,988.8
2022-11-18T08:27:58.954Z,988.8
2022-11-18T08:29:15.205Z,988.9
2022-11-18T08:30:31.436Z,988.9
2022-11-18T08:31:47.683Z,988.9
2022-11-18T08:33:03.919Z,988.9
2022-11-18T08:34:20.163Z,988.9
2022-11-18T08:35:36.402Z,988.9
2022-11-18T08:36:52.624Z,989
2022-11-18T08:38:08.862Z,989
2022-11-18T08:39:24.123Z,989
2022-11-18T08:40:40.359Z,989
2022-11-18T08:41:56.600Z,989
2022-11-18T08:43:12.837Z,989.1
2022-11-18T08:44:29.092Z,989
2022-11-18T08:45:45.325Z,989.1
2022-11-18T08:47:01.564Z,989
2022-11-18T08:48:17.797Z,989
2022-11-18T08:49:34.045Z,989.1
2022-11-18T08:50:50.289Z,989.1
2022-11-18T08:52:06.522Z,989.2
2022-11-18T08:53:22.772Z,989.1
2022-11-18T08:54:38.997Z,989.2
2022-11-18T08:55:54.259Z,989.2
2022-11-18T08:57:10.502Z,989.2
2022-11-18T08:58:26.740Z,989.3
2022-11-18T08:59:42.969Z,989.3
2022-11-18T09:02:15.454Z,989.3
2022-11-18T09:03:31.688Z,989.3
2022-11-18T09:04:47.940Z,989.3
2022-11-18T09:06:04.165Z,989.3
2022-11-18T09:07:20.402Z,989.3
2022-11-18T09:08:36.656Z,989.3
2022-11-18T09:09:52.893Z,989.3
2022-11-18T09:11:09.133Z,989.3
2022-11-18T09:12:24.393Z,989.3
2022-11-18T09:13:40.621Z,989.3
2022-11-18T09:14:56.853Z,989.4
2022-11-18T09:16:13.111Z,989.4
2022-11-18T09:17:29.335Z,989.5
2022-11-18T09:18:45.579Z,989.5
2022-11-18T09:20:00.835Z,989.5
2022-11-18T09:21:17.074Z,989.5
2022-11-18T09:22:33.318Z,989.6
2022-11-18T09:23:49.554Z,989.5
2022-11-18T09:25:05.796Z,989.6
2022-11-18T09:26:22.041Z,989.6
2022-11-18T09:27:38.271Z,989.6
2022-11-18T09:28:54.523Z,989.7
2022-11-18T09:30:10.754Z,989.6
2022-11-18T09:31:26.989Z,989.6
2022-11-18T09:32:43.229Z,989.7
2022-11-18T09:33:59.471Z,989.7
2022-11-18T09:35:15.714Z,989.7
2022-11-18T09:36:30.974Z,989.7
2022-11-18T09:37:47.209Z,989.8
2022-11-18T09:39:03.441Z,989.8
2022-11-18T09:40:19.693Z,989.8
2022-11-18T09:41:35.929Z,989.9
2022-11-18T09:42:52.159Z,989.9
2022-11-18T09:44:08.404Z,989.9
2022-11-18T09:45:24.638Z,989.9
2022-11-18T09:46:40.878Z,990
2022-11-18T09:47:57.111Z,990
2022-11-18T09:49:13.368Z,990
2022-11-18T09:50:29.608Z,989.9
2022-11-18T09:51:45.834Z,989.9
2022-11-18T09:53:01.086Z,989.9
2022-11-18T09:54:17.330Z,990
2022-11-18T09:55:33.566Z,989.9
2022-11-18T09:56:49.817Z,990
2022-11-18T09:58:06.056Z,989.9
2022-11-18T09:59:22.288Z,990
2022-11-18T10:00:38.532Z,990
2022-11-18T10:01:54.758Z,990
2022-11-18T10:03:11.009Z,990
2022-11-18T10:04:27.251Z,990
2022-11-18T10:05:43.493Z,990
2022-11-18T10:06:59.713Z,990
2022-11-18T10:08:15.970Z,990.1
2022-11-18T10:09:31.216Z,990
2022-11-18T10:10:47.457Z,990.1
2022-11-18T10:12:03.692Z,990.1
2022-11-18T10:13:19.930Z,990.1
2022-11-18T10:14:36.175Z,990.1
2022-11-18T10:15:52.425Z,990.1
2022-11-18T10:17:08.645Z,990.2
2022-11-18T10:18:24.891Z,990.2
2022-11-18T10:19:41.126Z,990.1
2022-11-18T10:20:57.363Z,990.1
2022-11-18T10:22:13.613Z,990.2
2022-11-18T10:23:29.857Z,990.2
2022-11-18T10:24:46.100Z,990.2
2022-11-18T10:26:01.336Z,990.3
2022-11-18T10:27:17.575Z,990.3
2022-11-18T10:28:33.823Z,990.3
2022-11-18T10:29:50.068Z,990.4
2022-11-18T10:31:06.302Z,990.4
2022-11-18T10:32:22.552Z,990.4
2022-11-18T10:33:38.775Z,990.4
2022-11-18T10:34:55.027Z,990.5
2022-11-18T10:36:11.262Z,990.4
2022-11-18T10:37:27.498Z,990.5
2022-11-18T10:38:43.744Z,990.5
2022-11-18T10:39:59.982Z,990.5
2022-11-18T10:41:16.220Z,990.5
2022-11-18T10:42:31.482Z,990.5
2022-11-18T10:43:47.719Z,990.6
2022-11-18T10:45:03.956Z,990.6
2022-11-18T10:46:20.194Z,990.6
2022-11-18T10:47:36.433Z,990.6
2022-11-18T10:48:52.663Z,990.6
2022-11-18T10:50:08.906Z,990.6
2022-11-18T10:51:25.147Z,990.7
2022-11-18T10:52:41.387Z,990.7
2022-11-18T10:53:57.625Z,990.7
2022-11-18T10:55:13.871Z,990.7
2022-11-18T10:56:30.099Z,990.7
2022-11-18T10:57:46.347Z,990.7
2022-11-18T10:59:01.608Z,990.7
2022-11-18T11:00:17.847Z,990.7
2022-11-18T11:01:34.081Z,990.8
2022-11-18T11:02:50.312Z,990.8
2022-11-18T11:04:06.565Z,990.9
2022-11-18T11:05:22.789Z,990.9
2022-11-18T11:06:39.031Z,990.9
2022-11-18T11:07:55.269Z,990.9
2022-11-18T11:09:11.504Z,991
2022-11-18T11:10:27.750Z,991
2022-11-18T11:11:43.991Z,991
2022-11-18T11:13:00.234Z,990.9
2022-11-18T11:14:16.467Z,991
2022-11-18T11:15:31.737Z,991
2022-11-18T11:16:47.966Z,991
2022-11-18T11:18:04.196Z,991
2022-11-18T11:19:20.453Z,991
2022-11-18T11:20:36.677Z,991
2022-11-18T11:21:52.921Z,991
2022-11-18T11:23:09.161Z,991
2022-11-18T11:24:25.393Z,991.1
2022-11-18T11:25:41.642Z,991.1
2022-11-18T11:26:57.882Z,991
2022-11-18T11:28:14.117Z,991
2022-11-18T11:29:30.357Z,991.1
2022-11-18T11:30:46.606Z,991.1
2022-11-18T11:32:01.853Z,991.1
2022-11-18T11:33:18.102Z,991.1
2022-11-18T11:34:34.331Z,991.1
2022-11-18T11:35:50.579Z,991.1
2022-11-18T11:37:06.806Z,991.1
2022-11-18T11:38:23.045Z,991.1
2022-11-18T11:39:39.298Z,991.1
2022-11-18T11:40:55.527Z,991.1
2022-11-18T11:42:11.780Z,991.1
2022-11-18T11:44:44.252Z,991.1
2022-11-18T11:46:00.489Z,991.1
2022-11-18T11:47:16.730Z,991.1
2022-11-18T11:48:31.979Z,991.1
2022-11-18T11:49:48.225Z,991.2
2022-11-18T11:51:04.453Z,991.2
2022-11-18T11:52:20.709Z,991.2
2022-11-18T11:53:36.943Z,991.2
2022-11-18T11:54:53.168Z,991.1
2022-11-18T11:56:09.407Z,991.1
2022-11-18T11:57:25.655Z,991.2
2022-11-18T11:58:41.899Z,991.2
2022-11-18T11:59:58.135Z,991.2
2022-11-18T12:01:14.365Z,991.1
2022-11-18T12:02:30.607Z,991.1
2022-11-18T12:03:46.859Z,991.1
2022-11-18T12:05:02.113Z,991.1
2022-11-18T12:06:18.351Z,991.1
2022-11-18T12:07:34.580Z,991.2
2022-11-18T12:08:50.819Z,991.2
2022-11-18T12:10:07.070Z,991.2
2022-11-18T12:11:23.308Z,991.2
2022-11-18T12:12:39.537Z,991.2
2022-11-18T12:13:55.783Z,991.3
2022-11-18T12:15:12.025Z,991.2
2022-11-18T12:16:28.253Z,991.2
2022-11-18T12:17:44.496Z,991.2
2022-11-18T12:19:00.736Z,991.2
2022-11-18T12:20:16.979Z,991.3
2022-11-18T12:21:32.243Z,991.3
2022-11-18T12:22:48.485Z,991.4
2022-11-18T12:24:04.708Z,991.4
2022-11-18T12:25:20.955Z,991.4
2022-11-18T12:26:37.200Z,991.4
2022-11-18T12:27:53.438Z,991.4
2022-11-18T12:29:09.678Z,991.4
2022-11-18T12:30:25.903Z,991.5
2022-11-18T12:31:42.161Z,991.5
2022-11-18T12:32:58.387Z,991.5
2022-11-18T12:34:14.621Z,991.5
2022-11-18T12:35:30.870Z,991.6
2022-11-18T12:36:47.098Z,991.6
2022-11-18T12:38:02.366Z,991.6
2022-11-18T12:39:18.608Z,991.7
2022-11-18T12:40:34.834Z,991.6
2022-11-18T12:41:51.091Z,991.6
2022-11-18T12:43:07.330Z,991.7
2022-11-18T12:44:23.559Z,991.7
2022-11-18T12:45:39.795Z,991.7
2022-11-18T12:46:56.041Z,991.7
2022-11-18T12:48:12.283Z,991.7
2022-11-18T12:49:28.520Z,991.7
2022-11-18T12:50:44.764Z,991.7
2022-11-18T12:52:00.997Z,991.8
2022-11-18T12:53:17.230Z,991.8
2022-11-18T12:54:32.497Z,991.8
2022-11-18T12:55:48.732Z,991.8
2022-11-18T12:57:04.967Z,991.8
2022-11-18T12:58:21.206Z,991.9
2022-11-18T12:59:37.439Z,991.9
2022-11-18T13:00:53.688Z,991.9
2022-11-18T13:02:09.931Z,991.9
2022-11-18T13:03:26.161Z,991.9
2022-11-18T13:04:42.412Z,991.9
2022-11-18T13:05:58.641Z,991.9
2022-11-18T13:07:14.885Z,991.9
2022-11-18T13:08:31.130Z,991.9
2022-11-18T13:09:47.369Z,992
2022-11-18T13:11:02.623Z,991.9
2022-11-18T13:12:18.852Z,991.9
2022-11-18T13:13:35.092Z,992
2022-11-18T13:14:51.340Z,992
2022-11-18T13:16:07.582Z,992
2022-11-18T13:17:23.825Z,992
2022-11-18T13:18:40.045Z,992
2022-11-18T13:19:56.299Z,992
2022-11-18T13:21:12.536Z,992
2022-11-18T13:22:28.765Z,992.1
2022-11-18T13:23:45.019Z,992
2022-11-18T13:25:01.247Z,992.1
2022-11-18T13:26:17.484Z,992.1
2022-11-18T13:27:32.739Z,992.1
2022-11-18T13:28:48.978Z,992.1
2022-11-18T13:30:05.229Z,992.1
2022-11-18T13:31:21.472Z,992.1
2022-11-18T13:32:37.705Z,992.2
2022-11-18T13:33:53.943Z,992.1
2022-11-18T13:35:09.201Z,992.1
2022-11-18T13:36:25.452Z,992.2
2022-11-18T13:37:41.686Z,992.2
2022-11-18T13:38:57.927Z,992.2
2022-11-18T13:40:14.155Z,992.2
2022-11-18T13:41:30.409Z,992.3
2022-11-18T13:42:46.648Z,992.2
2022-11-18T13:44:02.870Z,992.3
2022-11-18T13:45:19.118Z,992.3
2022-11-18T13:46:35.349Z,992.3
2022-11-18T13:47:51.595Z,992.4
2022-11-18T13:49:07.842Z,992.4
2022-11-18T13:50:24.076Z,992.5
2022-11-18T13:51:39.333Z,992.4
2022-11-18T13:52:55.567Z,992.5
2022-11-18T13:54:11.815Z,992.5
2022-11-18T13:55:28.051Z,992.5
2022-11-18T13:56:44.294Z,992.5
2022-11-18T13:58:00.525Z,992.6
2022-11-18T13:59:16.779Z,992.6
2022-11-18T14:00:33.008Z,992.6
2022-11-18T14:01:49.248Z,992.6
2022-11-18T14:03:05.491Z,992.7
2022-11-18T14:04:21.733Z,992.7
2022-11-18T14:05:37.973Z,992.6
2022-11-18T14:06:54.196Z,992.7
2022-11-18T14:08:09.466Z,992.7
2022-11-18T14:09:25.699Z,992.7
2022-11-18T14:10:41.930Z,992.7
2022-11-18T14:11:58.189Z,992.7
2022-11-18T14:13:14.423Z,992.7
2022-11-18T14:14:30.656Z,992.7
2022-11-18T14:15:46.887Z,992.8
2022-11-18T14:17:03.144Z,992.8
2022-11-18T14:18:19.373Z,992.9
2022-11-18T14:19:35.619Z,992.8
2022-11-18T14:20:51.859Z,992.9
2022-11-18T14:22:08.084Z,992.9
2022-11-18T14:23:24.329Z,992.9
2022-11-18T14:24:39.599Z,992.9
2022-11-18T14:25:55.823Z,992.9
2022-11-18T14:27:12.063Z,993
2022-11-18T14:28:28.314Z,992.9
2022-11-18T14:29:44.553Z,993
2022-11-18T14:31:00.788Z,993
2022-11-18T14:32:17.017Z,993
2022-11-18T14:33:33.270Z,993.1
2022-11-18T14:34:49.511Z,993
2022-11-18T14:36:05.743Z,993.1
2022-11-18T14:37:21.980Z,993.1
2022-11-18T14:38:38.215Z,993.1
2022-11-18T14:39:54.455Z,993.1
2022-11-18T14:41:09.713Z,993.1
2022-11-18T14:42:25.962Z,993.2
2022-11-18T14:43:42.203Z,993.2
2022-11-18T14:44:58.447Z,993.1
2022-11-18T14:46:14.687Z,993.2
2022-11-18T14:47:30.914Z,993.2
2022-11-18T14:48:47.149Z,993.2
2022-11-18T14:50:03.389Z,993.2
2022-11-18T14:51:19.637Z,993.3
2022-11-18T14:52:35.866Z,993.4
2022-11-18T14:53:52.114Z,993.4
2022-11-18T14:55:08.356Z,993.3
2022-11-18T14:56:24.593Z,993.4
2022-11-18T14:57:39.852Z,993.4
2022-11-18T14:58:56.096Z,993.5
2022-11-18T15:00:12.338Z,993.5
2022-11-18T15:01:28.567Z,993.5
2022-11-18T15:02:44.811Z,993.5
2022-11-18T15:04:01.046Z,993.6
2022-11-18T15:05:17.279Z,993.6
2022-11-18T15:06:33.534Z,993.6
2022-11-18T15:07:49.767Z,993.6
2022-11-18T15:09:05.997Z,993.6
2022-11-18T15:10:22.246Z,993.6
2022-11-18T15:11:38.492Z,993.6
2022-11-18T15:12:54.715Z,993.6
2022-11-18T15:14:09.987Z,993.7
2022-11-18T15:15:26.224Z,993.7
2022-11-18T15:17:58.688Z,993.6
2022-11-18T15:19:14.930Z,993.7
2022-11-18T15:20:31.186Z,993.7
2022-11-18T15:21:47.409Z,993.7
2022-11-18T15:23:03.648Z,993.7
2022-11-18T15:24:19.886Z,993.7
2022-11-18T15:25:36.132Z,993.8
2022-11-18T15:26:52.374Z,993.7
2022-11-18T15:28:08.602Z,993.7
2022-11-18T15:29:24.863Z,993.7
2022-11-18T15:30:40.104Z,993.7
2022-11-18T15:31:56.354Z,993.7
2022-11-18T15:33:12.591Z,993.8
2022-11-18T15:34:28.826Z,993.8
2022-11-18T15:35:45.063Z,993.8
2022-11-18T15:37:01.307Z,993.8
2022-11-18T15:38:17.544Z,993.8
2022-11-18T15:39:33.774Z,993.8
2022-11-18T15:40:50.029Z,993.8
2022-11-18T15:42:06.266Z,993.8
2022-11-18T15:43:22.496Z,993.8
2022-11-18T15:44:38.738Z,993.8
2022-11-18T15:45:54.982Z,993.8
2022-11-18T15:47:10.300Z,993.8
2022-11-18T15:48:26.588Z,993.9
2022-11-18T15:49:42.880Z,993.9
2022-11-18T15:50:59.163Z,993.9
2022-11-18T15:52:15.459Z,993.9
2022-11-18T15:53:31.751Z,994
2022-11-18T15:54:48.052Z,994
2022-11-18T15:56:04.354Z,994.1
2022-11-18T15:57:20.630Z,994
2022-11-18T15:58:36.941Z,994
2022-11-18T15:59:53.238Z,994.1
2022-11-18T16:01:09.532Z,994.1
2022-11-18T16:02:25.812Z,994.1
2022-11-18T16:03:41.120Z,994.1
2022-11-18T16:04:57.411Z,994.1
2022-11-18T16:06:13.705Z,994.1
2022-11-18T16:07:30.000Z,994.1
2022-11-18T16:08:46.295Z,994.1
2022-11-18T16:10:02.587Z,994.2
2022-11-18T16:11:18.880Z,994.2
2022-11-18T16:12:35.181Z,994.2
2022-11-18T16:13:51.471Z,994.2
2022-11-18T16:15:07.766Z,994.2
2022-11-18T16:16:24.060Z,994.2
2022-11-18T16:17:40.357Z,994.2
2022-11-18T16:18:56.657Z,994.2
2022-11-18T16:20:11.964Z,994.3
2022-11-18T16:21:28.246Z,994.3
2022-11-18T16:22:44.540Z,994.3
2022-11-18T16:24:00.836Z,994.4
2022-11-18T16:25:17.126Z,994.4
2022-11-18T16:26:33.422Z,994.4
2022-11-18T16:27:49.724Z,994.4
2022-11-18T16:29:06.013Z,994.5
2022-11-18T16:30:22.306Z,994.5
2022-11-18T16:31:38.592Z,994.5
2022-11-18T16:32:54.902Z,994.5
2022-11-18T16:34:11.186Z,994.5
2022-11-18T16:35:27.478Z,994.5